sensor_id;sensor_type;location;lat;lon;timestamp;temperature;humidity
16066;DHT22;8137;48.952;8.970;2023-04-24T00:00:14;11.20;99.90
16066;DHT22;8137;48.952;8.970;2023-04-24T00:02:43;11.20;99.90
16066;DHT22;8137;48.952;8.970;2023-04-24T00:05:14;11.20;99.90
16066;DHT22;8137;48.952;8.970;2023-04-24T00:07:44;11.20;99.90
16066;DHT22;8137;48.952;8.970;2023-04-24T00:10:11;11.20;99.90
16066;DHT22;8137;48.952;8.970;2023-04-24T00:12:37;11.20;99.90
16066;DHT22;8137;48.952;8.970;2023-04-24T00:15:04;11.20;99.90
16066;DHT22;8137;48.952;8.970;2023-04-24T00:17:30;11.30;99.90
16066;DHT22;8137;48.952;8.970;2023-04-24T00:19:56;11.30;99.90
16066;DHT22;8137;48.952;8.970;2023-04-24T00:22:25;11.30;99.90
16066;DHT22;8137;48.952;8.970;2023-04-24T00:24:51;11.30;99.90
16066;DHT22;8137;48.952;8.970;2023-04-24T00:27:16;11.30;99.90
16066;DHT22;8137;48.952;8.970;2023-04-24T00:29:42;11.30;99.90
16066;DHT22;8137;48.952;8.970;2023-04-24T00:32:07;11.40;99.90
16066;DHT22;8137;48.952;8.970;2023-04-24T00:34:33;11.40;99.90
16066;DHT22;8137;48.952;8.970;2023-04-24T00:36:58;11.50;99.90
16066;DHT22;8137;48.952;8.970;2023-04-24T00:39:24;11.40;99.90
16066;DHT22;8137;48.952;8.970;2023-04-24T00:41:50;11.50;99.90
16066;DHT22;8137;48.952;8.970;2023-04-24T00:44:16;11.50;99.90
16066;DHT22;8137;48.952;8.970;2023-04-24T00:46:42;11.50;99.90
16066;DHT22;8137;48.952;8.970;2023-04-24T00:49:08;11.50;99.90
16066;DHT22;8137;48.952;8.970;2023-04-24T00:51:34;11.50;99.90
16066;DHT22;8137;48.952;8.970;2023-04-24T00:54:00;11.50;99.90
16066;DHT22;8137;48.952;8.970;2023-04-24T00:56:26;11.60;99.90
16066;DHT22;8137;48.952;8.970;2023-04-24T00:58:52;11.70;99.90
16066;DHT22;8137;48.952;8.970;2023-04-24T01:01:21;11.70;99.90
16066;DHT22;8137;48.952;8.970;2023-04-24T01:03:49;11.70;99.90
16066;DHT22;8137;48.952;8.970;2023-04-24T01:06:16;11.70;99.90
16066;DHT22;8137;48.952;8.970;2023-04-24T01:08:43;11.60;99.90
16066;DHT22;8137;48.952;8.970;2023-04-24T01:11:10;11.70;99.90
16066;DHT22;8137;48.952;8.970;2023-04-24T01:13:35;11.60;99.90
16066;DHT22;8137;48.952;8.970;2023-04-24T01:16:01;11.60;99.90
16066;DHT22;8137;48.952;8.970;2023-04-24T01:18:27;11.60;99.90
16066;DHT22;8137;48.952;8.970;2023-04-24T01:20:58;11.60;99.90
16066;DHT22;8137;48.952;8.970;2023-04-24T01:23:24;11.50;99.90
16066;DHT22;8137;48.952;8.970;2023-04-24T01:25:50;11.50;99.90
16066;DHT22;8137;48.952;8.970;2023-04-24T01:28:16;11.40;99.90
16066;DHT22;8137;48.952;8.970;2023-04-24T01:30:41;11.30;99.90
16066;DHT22;8137;48.952;8.970;2023-04-24T01:33:07;11.30;99.90
16066;DHT22;8137;48.952;8.970;2023-04-24T01:35:33;11.30;99.90
16066;DHT22;8137;48.952;8.970;2023-04-24T01:37:59;11.20;99.90
16066;DHT22;8137;48.952;8.970;2023-04-24T01:40:25;11.20;99.90
16066;DHT22;8137;48.952;8.970;2023-04-24T01:42:51;11.10;99.90
16066;DHT22;8137;48.952;8.970;2023-04-24T01:45:17;11.10;99.90
16066;DHT22;8137;48.952;8.970;2023-04-24T01:47:43;11.00;99.90
16066;DHT22;8137;48.952;8.970;2023-04-24T01:50:09;11.00;99.90
16066;DHT22;8137;48.952;8.970;2023-04-24T01:52:35;11.00;99.90
16066;DHT22;8137;48.952;8.970;2023-04-24T01:55:04;11.10;99.90
16066;DHT22;8137;48.952;8.970;2023-04-24T01:57:31;11.10;99.90
16066;DHT22;8137;48.952;8.970;2023-04-24T01:59:57;11.10;99.90
16066;DHT22;8137;48.952;8.970;2023-04-24T02:02:23;11.10;99.90
16066;DHT22;8137;48.952;8.970;2023-04-24T02:04:56;11.10;99.90
16066;DHT22;8137;48.952;8.970;2023-04-24T02:07:22;11.10;99.90
16066;DHT22;8137;48.952;8.970;2023-04-24T02:09:48;11.10;99.90
16066;DHT22;8137;48.952;8.970;2023-04-24T02:12:14;11.10;99.90
16066;DHT22;8137;48.952;8.970;2023-04-24T02:14:40;11.20;99.90
16066;DHT22;8137;48.952;8.970;2023-04-24T02:17:06;11.20;99.90
16066;DHT22;8137;48.952;8.970;2023-04-24T02:19:31;11.20;99.90
16066;DHT22;8137;48.952;8.970;2023-04-24T02:21:57;11.20;99.90
16066;DHT22;8137;48.952;8.970;2023-04-24T02:24:23;11.20;99.90
16066;DHT22;8137;48.952;8.970;2023-04-24T02:26:48;11.30;99.90
16066;DHT22;8137;48.952;8.970;2023-04-24T02:29:14;11.20;99.90
16066;DHT22;8137;48.952;8.970;2023-04-24T02:31:40;11.20;99.90
16066;DHT22;8137;48.952;8.970;2023-04-24T02:34:05;11.30;99.90
16066;DHT22;8137;48.952;8.970;2023-04-24T02:36:31;11.30;99.90
16066;DHT22;8137;48.952;8.970;2023-04-24T02:38:57;11.20;99.90
16066;DHT22;8137;48.952;8.970;2023-04-24T02:41:22;11.20;99.90
16066;DHT22;8137;48.952;8.970;2023-04-24T02:43:48;11.20;99.90
16066;DHT22;8137;48.952;8.970;2023-04-24T02:46:13;11.20;99.90
16066;DHT22;8137;48.952;8.970;2023-04-24T02:48:39;11.20;99.90
16066;DHT22;8137;48.952;8.970;2023-04-24T02:51:05;11.20;99.90
16066;DHT22;8137;48.952;8.970;2023-04-24T02:53:32;11.20;99.90
16066;DHT22;8137;48.952;8.970;2023-04-24T02:55:57;11.10;99.90
16066;DHT22;8137;48.952;8.970;2023-04-24T02:58:23;11.10;99.90
16066;DHT22;8137;48.952;8.970;2023-04-24T03:00:48;11.10;99.90
16066;DHT22;8137;48.952;8.970;2023-04-24T03:03:14;11.00;99.90
16066;DHT22;8137;48.952;8.970;2023-04-24T03:05:40;10.90;99.90
16066;DHT22;8137;48.952;8.970;2023-04-24T03:08:06;10.80;99.90
16066;DHT22;8137;48.952;8.970;2023-04-24T03:10:31;10.70;99.90
16066;DHT22;8137;48.952;8.970;2023-04-24T03:12:57;10.70;99.90
16066;DHT22;8137;48.952;8.970;2023-04-24T03:15:23;10.60;99.90
16066;DHT22;8137;48.952;8.970;2023-04-24T03:17:49;10.60;99.90
16066;DHT22;8137;48.952;8.970;2023-04-24T03:20:15;10.60;99.90
16066;DHT22;8137;48.952;8.970;2023-04-24T03:22:41;10.60;99.90
16066;DHT22;8137;48.952;8.970;2023-04-24T03:25:07;10.70;99.90
16066;DHT22;8137;48.952;8.970;2023-04-24T03:27:34;10.70;99.90
16066;DHT22;8137;48.952;8.970;2023-04-24T03:30:00;10.70;99.90
16066;DHT22;8137;48.952;8.970;2023-04-24T03:32:26;10.70;99.90
16066;DHT22;8137;48.952;8.970;2023-04-24T03:34:51;10.80;99.90
16066;DHT22;8137;48.952;8.970;2023-04-24T03:37:17;10.80;99.90
16066;DHT22;8137;48.952;8.970;2023-04-24T03:39:43;10.80;99.90
16066;DHT22;8137;48.952;8.970;2023-04-24T03:42:09;10.80;99.90
16066;DHT22;8137;48.952;8.970;2023-04-24T03:44:35;10.90;99.90
16066;DHT22;8137;48.952;8.970;2023-04-24T03:47:01;10.90;99.90
16066;DHT22;8137;48.952;8.970;2023-04-24T03:49:26;10.90;99.90
16066;DHT22;8137;48.952;8.970;2023-04-24T03:51:52;10.90;99.90
16066;DHT22;8137;48.952;8.970;2023-04-24T03:54:21;10.80;99.90
16066;DHT22;8137;48.952;8.970;2023-04-24T03:56:46;10.70;99.90
16066;DHT22;8137;48.952;8.970;2023-04-24T03:59:12;10.70;99.90
16066;DHT22;8137;48.952;8.970;2023-04-24T04:01:38;10.60;99.90
16066;DHT22;8137;48.952;8.970;2023-04-24T04:04:05;10.40;99.90
16066;DHT22;8137;48.952;8.970;2023-04-24T04:06:30;10.30;99.90
16066;DHT22;8137;48.952;8.970;2023-04-24T04:08:57;10.10;99.90
16066;DHT22;8137;48.952;8.970;2023-04-24T04:11:22;9.90;99.90
16066;DHT22;8137;48.952;8.970;2023-04-24T04:13:48;9.70;99.90
16066;DHT22;8137;48.952;8.970;2023-04-24T04:16:14;9.60;99.90
16066;DHT22;8137;48.952;8.970;2023-04-24T04:18:42;9.50;99.90
16066;DHT22;8137;48.952;8.970;2023-04-24T04:21:07;9.50;99.90
16066;DHT22;8137;48.952;8.970;2023-04-24T04:23:33;9.50;99.90
16066;DHT22;8137;48.952;8.970;2023-04-24T04:25:59;9.40;99.90
16066;DHT22;8137;48.952;8.970;2023-04-24T04:28:25;9.50;99.90
16066;DHT22;8137;48.952;8.970;2023-04-24T04:30:50;9.40;99.90
16066;DHT22;8137;48.952;8.970;2023-04-24T04:33:20;9.40;99.90
16066;DHT22;8137;48.952;8.970;2023-04-24T04:35:46;9.40;99.90
16066;DHT22;8137;48.952;8.970;2023-04-24T04:38:14;9.40;99.90
16066;DHT22;8137;48.952;8.970;2023-04-24T04:40:40;9.30;99.90
16066;DHT22;8137;48.952;8.970;2023-04-24T04:43:06;9.40;99.90
16066;DHT22;8137;48.952;8.970;2023-04-24T04:45:32;9.40;99.90
16066;DHT22;8137;48.952;8.970;2023-04-24T04:47:58;9.40;99.90
16066;DHT22;8137;48.952;8.970;2023-04-24T04:50:26;9.40;99.90
16066;DHT22;8137;48.952;8.970;2023-04-24T04:52:52;9.40;99.90
16066;DHT22;8137;48.952;8.970;2023-04-24T04:55:17;9.40;99.90
16066;DHT22;8137;48.952;8.970;2023-04-24T04:57:45;9.30;99.90
16066;DHT22;8137;48.952;8.970;2023-04-24T05:00:11;9.30;99.90
16066;DHT22;8137;48.952;8.970;2023-04-24T05:02:40;9.20;99.90
16066;DHT22;8137;48.952;8.970;2023-04-24T05:05:06;9.20;99.90
16066;DHT22;8137;48.952;8.970;2023-04-24T05:07:32;9.10;99.90
16066;DHT22;8137;48.952;8.970;2023-04-24T05:09:58;9.10;99.90
16066;DHT22;8137;48.952;8.970;2023-04-24T05:12:24;9.00;99.90
16066;DHT22;8137;48.952;8.970;2023-04-24T05:14:50;9.00;99.90
16066;DHT22;8137;48.952;8.970;2023-04-24T05:17:15;9.00;99.90
16066;DHT22;8137;48.952;8.970;2023-04-24T05:19:41;9.10;99.90
16066;DHT22;8137;48.952;8.970;2023-04-24T05:22:07;9.10;99.90
16066;DHT22;8137;48.952;8.970;2023-04-24T05:24:33;9.10;99.90
16066;DHT22;8137;48.952;8.970;2023-04-24T05:26:59;9.10;99.90
16066;DHT22;8137;48.952;8.970;2023-04-24T05:29:25;9.10;99.90
16066;DHT22;8137;48.952;8.970;2023-04-24T05:31:51;9.20;99.90
16066;DHT22;8137;48.952;8.970;2023-04-24T05:34:17;9.40;99.90
16066;DHT22;8137;48.952;8.970;2023-04-24T05:36:43;9.50;99.90
16066;DHT22;8137;48.952;8.970;2023-04-24T05:39:09;9.60;99.90
16066;DHT22;8137;48.952;8.970;2023-04-24T05:41:34;9.70;99.90
16066;DHT22;8137;48.952;8.970;2023-04-24T05:44:00;9.80;99.90
16066;DHT22;8137;48.952;8.970;2023-04-24T05:46:26;9.90;99.90
16066;DHT22;8137;48.952;8.970;2023-04-24T05:48:51;10.00;99.90
16066;DHT22;8137;48.952;8.970;2023-04-24T05:51:17;10.10;99.90
16066;DHT22;8137;48.952;8.970;2023-04-24T05:53:42;10.30;99.90
16066;DHT22;8137;48.952;8.970;2023-04-24T05:56:08;10.40;99.90
16066;DHT22;8137;48.952;8.970;2023-04-24T05:58:34;10.50;99.90
16066;DHT22;8137;48.952;8.970;2023-04-24T06:00:59;10.70;99.90
16066;DHT22;8137;48.952;8.970;2023-04-24T06:03:27;10.80;99.90
16066;DHT22;8137;48.952;8.970;2023-04-24T06:05:53;10.90;99.90
16066;DHT22;8137;48.952;8.970;2023-04-24T06:08:18;11.10;99.90
16066;DHT22;8137;48.952;8.970;2023-04-24T06:10:44;11.30;99.90
16066;DHT22;8137;48.952;8.970;2023-04-24T06:13:10;11.30;99.90
16066;DHT22;8137;48.952;8.970;2023-04-24T06:15:36;11.40;99.90
16066;DHT22;8137;48.952;8.970;2023-04-24T06:18:02;11.60;99.90
16066;DHT22;8137;48.952;8.970;2023-04-24T06:20:28;11.80;99.90
16066;DHT22;8137;48.952;8.970;2023-04-24T06:22:54;11.80;99.90
16066;DHT22;8137;48.952;8.970;2023-04-24T06:25:19;12.10;99.90
16066;DHT22;8137;48.952;8.970;2023-04-24T06:27:45;12.40;99.90
16066;DHT22;8137;48.952;8.970;2023-04-24T06:30:11;12.50;99.90
16066;DHT22;8137;48.952;8.970;2023-04-24T06:32:37;12.40;99.90
16066;DHT22;8137;48.952;8.970;2023-04-24T06:35:03;12.50;99.90
16066;DHT22;8137;48.952;8.970;2023-04-24T06:37:29;12.70;99.90
16066;DHT22;8137;48.952;8.970;2023-04-24T06:39:55;12.90;99.90
16066;DHT22;8137;48.952;8.970;2023-04-24T06:42:20;12.90;99.90
16066;DHT22;8137;48.952;8.970;2023-04-24T06:44:47;12.80;99.90
16066;DHT22;8137;48.952;8.970;2023-04-24T06:47:13;12.70;99.90
16066;DHT22;8137;48.952;8.970;2023-04-24T06:49:39;12.70;99.90
16066;DHT22;8137;48.952;8.970;2023-04-24T06:52:05;12.60;99.90
16066;DHT22;8137;48.952;8.970;2023-04-24T06:54:31;12.50;99.90
16066;DHT22;8137;48.952;8.970;2023-04-24T06:56:58;12.40;99.90
16066;DHT22;8137;48.952;8.970;2023-04-24T06:59:24;12.30;99.90
16066;DHT22;8137;48.952;8.970;2023-04-24T07:01:50;12.20;99.90
16066;DHT22;8137;48.952;8.970;2023-04-24T07:04:19;12.00;99.90
16066;DHT22;8137;48.952;8.970;2023-04-24T07:06:48;12.00;99.90
16066;DHT22;8137;48.952;8.970;2023-04-24T07:09:15;12.00;99.90
16066;DHT22;8137;48.952;8.970;2023-04-24T07:11:47;12.10;99.90
16066;DHT22;8137;48.952;8.970;2023-04-24T07:14:13;12.00;99.90
16066;DHT22;8137;48.952;8.970;2023-04-24T07:16:39;12.00;99.90
16066;DHT22;8137;48.952;8.970;2023-04-24T07:19:04;12.00;99.90
16066;DHT22;8137;48.952;8.970;2023-04-24T07:21:30;12.00;99.90
16066;DHT22;8137;48.952;8.970;2023-04-24T07:23:57;11.90;99.90
16066;DHT22;8137;48.952;8.970;2023-04-24T07:26:23;11.90;99.90
16066;DHT22;8137;48.952;8.970;2023-04-24T07:28:49;11.90;99.90
16066;DHT22;8137;48.952;8.970;2023-04-24T07:31:14;11.70;99.90
16066;DHT22;8137;48.952;8.970;2023-04-24T07:33:40;11.60;99.90
16066;DHT22;8137;48.952;8.970;2023-04-24T07:36:06;11.60;99.90
16066;DHT22;8137;48.952;8.970;2023-04-24T07:38:31;11.70;99.90
16066;DHT22;8137;48.952;8.970;2023-04-24T07:40:57;11.70;99.90
16066;DHT22;8137;48.952;8.970;2023-04-24T07:43:23;11.80;99.90
16066;DHT22;8137;48.952;8.970;2023-04-24T07:45:50;11.70;99.90
16066;DHT22;8137;48.952;8.970;2023-04-24T07:48:15;11.60;99.90
16066;DHT22;8137;48.952;8.970;2023-04-24T07:50:43;11.40;99.90
16066;DHT22;8137;48.952;8.970;2023-04-24T07:53:09;11.20;99.90
16066;DHT22;8137;48.952;8.970;2023-04-24T07:55:35;11.10;99.90
16066;DHT22;8137;48.952;8.970;2023-04-24T07:58:00;11.10;99.90
16066;DHT22;8137;48.952;8.970;2023-04-24T08:00:26;11.30;99.90
16066;DHT22;8137;48.952;8.970;2023-04-24T08:02:52;11.60;99.90
16066;DHT22;8137;48.952;8.970;2023-04-24T08:05:17;11.60;99.90
16066;DHT22;8137;48.952;8.970;2023-04-24T08:07:43;11.50;99.90
16066;DHT22;8137;48.952;8.970;2023-04-24T08:10:11;11.60;99.90
16066;DHT22;8137;48.952;8.970;2023-04-24T08:12:37;11.80;99.90
16066;DHT22;8137;48.952;8.970;2023-04-24T08:15:04;11.80;99.90
16066;DHT22;8137;48.952;8.970;2023-04-24T08:17:29;12.00;99.90
16066;DHT22;8137;48.952;8.970;2023-04-24T08:19:55;12.00;99.90
16066;DHT22;8137;48.952;8.970;2023-04-24T08:22:27;12.30;99.90
16066;DHT22;8137;48.952;8.970;2023-04-24T08:24:52;12.50;99.90
16066;DHT22;8137;48.952;8.970;2023-04-24T08:27:18;12.80;99.90
16066;DHT22;8137;48.952;8.970;2023-04-24T08:29:44;12.90;99.90
16066;DHT22;8137;48.952;8.970;2023-04-24T08:32:09;12.80;99.90
16066;DHT22;8137;48.952;8.970;2023-04-24T08:34:35;12.70;99.90
16066;DHT22;8137;48.952;8.970;2023-04-24T08:37:00;12.30;99.90
16066;DHT22;8137;48.952;8.970;2023-04-24T08:39:26;12.00;99.90
16066;DHT22;8137;48.952;8.970;2023-04-24T08:41:52;12.10;99.90
16066;DHT22;8137;48.952;8.970;2023-04-24T08:44:19;12.10;99.90
16066;DHT22;8137;48.952;8.970;2023-04-24T08:46:48;12.00;99.90
16066;DHT22;8137;48.952;8.970;2023-04-24T08:49:15;12.00;99.90
16066;DHT22;8137;48.952;8.970;2023-04-24T08:51:44;12.00;99.90
16066;DHT22;8137;48.952;8.970;2023-04-24T08:54:11;12.10;99.90
16066;DHT22;8137;48.952;8.970;2023-04-24T08:56:37;12.20;99.90
16066;DHT22;8137;48.952;8.970;2023-04-24T08:59:05;12.40;99.90
16066;DHT22;8137;48.952;8.970;2023-04-24T09:01:32;12.50;99.90
16066;DHT22;8137;48.952;8.970;2023-04-24T09:04:03;12.20;99.90
16066;DHT22;8137;48.952;8.970;2023-04-24T09:06:30;12.20;99.90
16066;DHT22;8137;48.952;8.970;2023-04-24T09:09:00;12.40;99.90
16066;DHT22;8137;48.952;8.970;2023-04-24T09:11:27;12.80;99.90
16066;DHT22;8137;48.952;8.970;2023-04-24T09:13:53;12.90;99.90
16066;DHT22;8137;48.952;8.970;2023-04-24T09:16:20;13.10;99.90
16066;DHT22;8137;48.952;8.970;2023-04-24T09:18:46;13.50;99.90
16066;DHT22;8137;48.952;8.970;2023-04-24T09:21:11;13.40;99.90
16066;DHT22;8137;48.952;8.970;2023-04-24T09:23:38;12.60;99.90
16066;DHT22;8137;48.952;8.970;2023-04-24T09:26:04;12.50;99.90
16066;DHT22;8137;48.952;8.970;2023-04-24T09:28:36;12.20;99.90
16066;DHT22;8137;48.952;8.970;2023-04-24T09:31:11;12.00;99.90
16066;DHT22;8137;48.952;8.970;2023-04-24T09:33:37;12.00;99.90
16066;DHT22;8137;48.952;8.970;2023-04-24T09:36:03;11.90;99.90
16066;DHT22;8137;48.952;8.970;2023-04-24T09:38:36;11.70;99.90
16066;DHT22;8137;48.952;8.970;2023-04-24T09:41:06;11.60;99.90
16066;DHT22;8137;48.952;8.970;2023-04-24T09:43:33;11.70;99.90
16066;DHT22;8137;48.952;8.970;2023-04-24T09:46:05;12.00;99.90
16066;DHT22;8137;48.952;8.970;2023-04-24T09:48:35;12.50;99.90
16066;DHT22;8137;48.952;8.970;2023-04-24T09:51:03;12.90;99.90
16066;DHT22;8137;48.952;8.970;2023-04-24T09:53:29;13.50;99.90
16066;DHT22;8137;48.952;8.970;2023-04-24T09:55:55;13.80;99.90
16066;DHT22;8137;48.952;8.970;2023-04-24T09:58:25;13.50;99.90
16066;DHT22;8137;48.952;8.970;2023-04-24T10:00:55;13.50;99.90
16066;DHT22;8137;48.952;8.970;2023-04-24T10:03:24;13.10;99.90
16066;DHT22;8137;48.952;8.970;2023-04-24T10:05:52;12.70;99.90
16066;DHT22;8137;48.952;8.970;2023-04-24T10:08:18;12.40;99.90
16066;DHT22;8137;48.952;8.970;2023-04-24T10:10:45;12.40;99.90
16066;DHT22;8137;48.952;8.970;2023-04-24T10:13:13;12.40;99.90
16066;DHT22;8137;48.952;8.970;2023-04-24T10:15:40;12.50;99.90
16066;DHT22;8137;48.952;8.970;2023-04-24T10:18:08;12.70;99.90
16066;DHT22;8137;48.952;8.970;2023-04-24T10:20:35;12.40;99.90
16066;DHT22;8137;48.952;8.970;2023-04-24T10:23:01;12.00;99.90
16066;DHT22;8137;48.952;8.970;2023-04-24T10:25:29;11.60;99.90
16066;DHT22;8137;48.952;8.970;2023-04-24T10:27:57;11.40;99.90
16066;DHT22;8137;48.952;8.970;2023-04-24T10:30:28;11.40;99.90
16066;DHT22;8137;48.952;8.970;2023-04-24T10:32:54;11.50;99.90
16066;DHT22;8137;48.952;8.970;2023-04-24T10:35:20;11.50;99.90
16066;DHT22;8137;48.952;8.970;2023-04-24T10:38:01;11.60;99.90
16066;DHT22;8137;48.952;8.970;2023-04-24T10:40:33;11.60;99.90
16066;DHT22;8137;48.952;8.970;2023-04-24T10:43:03;11.50;99.90
16066;DHT22;8137;48.952;8.970;2023-04-24T10:45:31;11.90;99.90
16066;DHT22;8137;48.952;8.970;2023-04-24T10:47:57;12.30;99.90
16066;DHT22;8137;48.952;8.970;2023-04-24T10:50:26;12.70;99.90
16066;DHT22;8137;48.952;8.970;2023-04-24T10:52:52;12.90;99.90
16066;DHT22;8137;48.952;8.970;2023-04-24T10:55:58;12.70;99.90
16066;DHT22;8137;48.952;8.970;2023-04-24T10:58:39;12.50;99.90
16066;DHT22;8137;48.952;8.970;2023-04-24T11:01:05;12.50;99.90
16066;DHT22;8137;48.952;8.970;2023-04-24T11:03:35;12.70;99.90
16066;DHT22;8137;48.952;8.970;2023-04-24T11:06:05;13.00;99.90
16066;DHT22;8137;48.952;8.970;2023-04-24T11:16:51;13.30;99.90
16066;DHT22;8137;48.952;8.970;2023-04-24T11:19:22;13.40;99.90
16066;DHT22;8137;48.952;8.970;2023-04-24T11:22:02;13.10;99.90
16066;DHT22;8137;48.952;8.970;2023-04-24T11:24:48;13.40;99.90
16066;DHT22;8137;48.952;8.970;2023-04-24T11:27:16;13.20;99.90
16066;DHT22;8137;48.952;8.970;2023-04-24T11:29:43;13.40;99.90
16066;DHT22;8137;48.952;8.970;2023-04-24T11:32:17;13.30;99.90
16066;DHT22;8137;48.952;8.970;2023-04-24T11:34:48;12.90;99.90
16066;DHT22;8137;48.952;8.970;2023-04-24T11:37:14;13.00;99.90
16066;DHT22;8137;48.952;8.970;2023-04-24T11:39:40;13.00;99.90
16066;DHT22;8137;48.952;8.970;2023-04-24T11:42:07;12.80;99.90
16066;DHT22;8137;48.952;8.970;2023-04-24T11:44:34;13.00;99.90
16066;DHT22;8137;48.952;8.970;2023-04-24T11:47:00;12.70;99.90
16066;DHT22;8137;48.952;8.970;2023-04-24T11:49:25;12.80;99.90
16066;DHT22;8137;48.952;8.970;2023-04-24T11:51:55;13.00;99.90
16066;DHT22;8137;48.952;8.970;2023-04-24T11:54:21;13.10;99.90
16066;DHT22;8137;48.952;8.970;2023-04-24T11:56:47;13.30;99.90
16066;DHT22;8137;48.952;8.970;2023-04-24T11:59:13;13.30;99.90
16066;DHT22;8137;48.952;8.970;2023-04-24T12:01:43;13.30;99.90
16066;DHT22;8137;48.952;8.970;2023-04-24T12:04:09;13.00;99.90
16066;DHT22;8137;48.952;8.970;2023-04-24T12:06:35;13.00;99.90
16066;DHT22;8137;48.952;8.970;2023-04-24T12:09:01;13.00;99.90
16066;DHT22;8137;48.952;8.970;2023-04-24T12:11:26;13.10;99.90
16066;DHT22;8137;48.952;8.970;2023-04-24T12:13:52;12.60;99.90
16066;DHT22;8137;48.952;8.970;2023-04-24T12:16:18;12.10;99.90
16066;DHT22;8137;48.952;8.970;2023-04-24T12:18:44;11.60;99.90
16066;DHT22;8137;48.952;8.970;2023-04-24T12:21:18;11.50;99.90
16066;DHT22;8137;48.952;8.970;2023-04-24T12:23:44;11.30;99.90
16066;DHT22;8137;48.952;8.970;2023-04-24T12:26:19;11.20;99.90
16066;DHT22;8137;48.952;8.970;2023-04-24T12:28:47;11.40;99.90
16066;DHT22;8137;48.952;8.970;2023-04-24T12:31:15;11.80;99.90
16066;DHT22;8137;48.952;8.970;2023-04-24T12:33:40;12.20;99.90
16066;DHT22;8137;48.952;8.970;2023-04-24T12:36:06;12.70;99.90
16066;DHT22;8137;48.952;8.970;2023-04-24T12:38:35;12.70;99.90
16066;DHT22;8137;48.952;8.970;2023-04-24T12:41:07;12.60;99.90
16066;DHT22;8137;48.952;8.970;2023-04-24T12:43:34;12.50;99.90
16066;DHT22;8137;48.952;8.970;2023-04-24T12:46:00;12.60;99.90
16066;DHT22;8137;48.952;8.970;2023-04-24T12:48:26;12.40;99.90
16066;DHT22;8137;48.952;8.970;2023-04-24T12:50:52;12.10;99.90
16066;DHT22;8137;48.952;8.970;2023-04-24T12:53:18;11.90;99.90
16066;DHT22;8137;48.952;8.970;2023-04-24T12:55:44;11.90;99.90
16066;DHT22;8137;48.952;8.970;2023-04-24T12:58:19;11.90;99.90
16066;DHT22;8137;48.952;8.970;2023-04-24T13:00:45;11.80;99.90
16066;DHT22;8137;48.952;8.970;2023-04-24T13:03:12;11.90;99.90
16066;DHT22;8137;48.952;8.970;2023-04-24T13:05:37;12.40;99.90
16066;DHT22;8137;48.952;8.970;2023-04-24T13:08:03;12.60;99.90
16066;DHT22;8137;48.952;8.970;2023-04-24T13:10:29;12.60;99.90
16066;DHT22;8137;48.952;8.970;2023-04-24T13:12:54;12.40;99.90
16066;DHT22;8137;48.952;8.970;2023-04-24T13:15:20;12.30;99.90
16066;DHT22;8137;48.952;8.970;2023-04-24T13:17:45;12.20;99.90
16066;DHT22;8137;48.952;8.970;2023-04-24T13:20:11;12.20;99.90
16066;DHT22;8137;48.952;8.970;2023-04-24T13:22:37;12.10;99.90
16066;DHT22;8137;48.952;8.970;2023-04-24T13:25:03;12.10;99.90
16066;DHT22;8137;48.952;8.970;2023-04-24T13:27:28;12.70;99.90
16066;DHT22;8137;48.952;8.970;2023-04-24T13:29:54;13.00;99.90
16066;DHT22;8137;48.952;8.970;2023-04-24T13:32:20;13.20;99.90
16066;DHT22;8137;48.952;8.970;2023-04-24T13:34:45;13.10;99.90
16066;DHT22;8137;48.952;8.970;2023-04-24T13:37:11;12.90;99.90
16066;DHT22;8137;48.952;8.970;2023-04-24T13:39:37;12.80;99.90
16066;DHT22;8137;48.952;8.970;2023-04-24T13:42:03;12.50;99.90
16066;DHT22;8137;48.952;8.970;2023-04-24T13:44:28;12.50;99.90
16066;DHT22;8137;48.952;8.970;2023-04-24T13:46:55;12.50;99.90
16066;DHT22;8137;48.952;8.970;2023-04-24T13:49:23;12.80;99.90
16066;DHT22;8137;48.952;8.970;2023-04-24T13:51:51;13.20;99.90
16066;DHT22;8137;48.952;8.970;2023-04-24T13:54:16;13.20;99.90
16066;DHT22;8137;48.952;8.970;2023-04-24T13:56:42;13.40;99.90
16066;DHT22;8137;48.952;8.970;2023-04-24T13:59:09;13.30;99.90
16066;DHT22;8137;48.952;8.970;2023-04-24T14:01:35;13.10;99.90
16066;DHT22;8137;48.952;8.970;2023-04-24T14:04:01;12.70;99.90
16066;DHT22;8137;48.952;8.970;2023-04-24T14:06:27;12.40;99.90
16066;DHT22;8137;48.952;8.970;2023-04-24T14:08:52;12.40;99.90
16066;DHT22;8137;48.952;8.970;2023-04-24T14:11:18;12.50;99.90
16066;DHT22;8137;48.952;8.970;2023-04-24T14:13:44;12.90;99.90
16066;DHT22;8137;48.952;8.970;2023-04-24T14:16:11;13.40;99.90
16066;DHT22;8137;48.952;8.970;2023-04-24T14:18:36;13.50;99.90
16066;DHT22;8137;48.952;8.970;2023-04-24T14:21:03;13.60;99.90
16066;DHT22;8137;48.952;8.970;2023-04-24T14:23:29;13.60;99.90
16066;DHT22;8137;48.952;8.970;2023-04-24T14:25:55;13.90;99.90
16066;DHT22;8137;48.952;8.970;2023-04-24T14:28:20;13.90;99.90
16066;DHT22;8137;48.952;8.970;2023-04-24T14:30:47;14.20;99.90
16066;DHT22;8137;48.952;8.970;2023-04-24T14:33:13;14.90;99.90
16066;DHT22;8137;48.952;8.970;2023-04-24T14:35:40;14.80;99.90
16066;DHT22;8137;48.952;8.970;2023-04-24T14:38:07;14.50;99.90
16066;DHT22;8137;48.952;8.970;2023-04-24T14:40:33;14.10;99.90
16066;DHT22;8137;48.952;8.970;2023-04-24T14:42:58;14.00;99.90
16066;DHT22;8137;48.952;8.970;2023-04-24T14:45:25;13.70;99.90
16066;DHT22;8137;48.952;8.970;2023-04-24T14:47:50;13.60;99.90
16066;DHT22;8137;48.952;8.970;2023-04-24T14:50:16;13.50;99.90
16066;DHT22;8137;48.952;8.970;2023-04-24T14:52:42;13.50;99.90
16066;DHT22;8137;48.952;8.970;2023-04-24T14:55:08;13.80;99.90
16066;DHT22;8137;48.952;8.970;2023-04-24T14:57:34;14.20;99.90
16066;DHT22;8137;48.952;8.970;2023-04-24T15:00:01;14.20;99.90
16066;DHT22;8137;48.952;8.970;2023-04-24T15:02:27;14.00;99.90
16066;DHT22;8137;48.952;8.970;2023-04-24T15:04:52;13.70;99.90
16066;DHT22;8137;48.952;8.970;2023-04-24T15:07:18;13.50;99.90
16066;DHT22;8137;48.952;8.970;2023-04-24T15:09:43;13.50;99.90
16066;DHT22;8137;48.952;8.970;2023-04-24T15:12:09;13.10;99.90
16066;DHT22;8137;48.952;8.970;2023-04-24T15:14:37;13.10;99.90
16066;DHT22;8137;48.952;8.970;2023-04-24T15:17:03;13.00;99.90
16066;DHT22;8137;48.952;8.970;2023-04-24T15:19:28;13.10;99.90
16066;DHT22;8137;48.952;8.970;2023-04-24T15:21:54;13.50;99.90
16066;DHT22;8137;48.952;8.970;2023-04-24T15:24:19;13.80;99.90
16066;DHT22;8137;48.952;8.970;2023-04-24T15:26:45;14.20;99.90
16066;DHT22;8137;48.952;8.970;2023-04-24T15:29:10;14.40;99.90
16066;DHT22;8137;48.952;8.970;2023-04-24T15:31:36;14.20;99.90
16066;DHT22;8137;48.952;8.970;2023-04-24T15:34:05;14.10;99.90
16066;DHT22;8137;48.952;8.970;2023-04-24T15:36:30;13.90;99.90
16066;DHT22;8137;48.952;8.970;2023-04-24T15:38:56;13.70;99.90
16066;DHT22;8137;48.952;8.970;2023-04-24T15:41:22;13.70;99.90
16066;DHT22;8137;48.952;8.970;2023-04-24T15:43:47;13.60;99.90
16066;DHT22;8137;48.952;8.970;2023-04-24T15:46:13;13.50;99.90
16066;DHT22;8137;48.952;8.970;2023-04-24T15:48:38;13.70;99.90
16066;DHT22;8137;48.952;8.970;2023-04-24T15:51:06;13.60;99.90